createdAt,value
2023-02-22T00:01:36.252Z,0.30
2023-02-22T00:04:04.237Z,0.32
2023-02-22T00:06:32.000Z,0.30
2023-02-22T00:08:59.644Z,0.40
2023-02-22T00:11:27.249Z,0.50
2023-02-22T00:13:57.065Z,0.30
2023-02-22T00:16:26.729Z,0.30
2023-02-22T00:18:54.223Z,0.40
2023-02-22T00:21:22.084Z,0.30
2023-02-22T00:23:50.137Z,0.40
2023-02-22T00:26:19.696Z,0.40
2023-02-22T00:28:47.663Z,0.40
2023-02-22T00:31:15.710Z,0.40
2023-02-22T00:33:44.776Z,0.30
2023-02-22T00:36:13.172Z,0.30
2023-02-22T00:38:41.097Z,0.30
2023-02-22T00:41:08.860Z,0.40
2023-02-22T00:43:36.317Z,0.40
2023-02-22T00:46:03.842Z,0.40
2023-02-22T00:48:31.338Z,0.30
2023-02-22T00:51:00.141Z,0.30
2023-02-22T00:53:30.231Z,0.30
2023-02-22T00:55:57.756Z,0.40
2023-02-22T00:58:26.760Z,0.38
2023-02-22T01:00:54.223Z,0.30
2023-02-22T01:03:21.795Z,0.30
2023-02-22T01:05:50.517Z,0.32
2023-02-22T01:08:26.113Z,0.40
2023-02-22T01:10:53.608Z,0.40
2023-02-22T01:13:21.545Z,0.40
2023-02-22T01:15:49.016Z,0.40
2023-02-22T01:18:17.167Z,0.30
2023-02-22T01:20:47.905Z,0.45
2023-02-22T01:23:17.237Z,0.40
2023-02-22T01:25:46.158Z,0.38
2023-02-22T01:28:15.337Z,0.40
2023-02-22T01:30:42.829Z,0.40
2023-02-22T01:33:12.739Z,0.30
2023-02-22T01:35:41.131Z,0.40
2023-02-22T01:38:09.318Z,0.30
2023-02-22T01:40:37.770Z,0.30
2023-02-22T01:43:14.692Z,0.30
2023-02-22T01:45:48.819Z,0.38
2023-02-22T01:48:17.800Z,0.35
2023-02-22T01:50:46.315Z,0.30
2023-02-22T01:53:15.776Z,0.40
2023-02-22T01:55:43.542Z,0.35
2023-02-22T01:58:13.446Z,0.30
2023-02-22T02:00:44.618Z,0.40
2023-02-22T02:03:15.992Z,0.40
2023-02-22T02:05:44.055Z,0.40
2023-02-22T02:08:17.209Z,0.32
2023-02-22T02:10:44.921Z,0.30
2023-02-22T02:13:16.049Z,0.40
2023-02-22T02:15:43.665Z,0.40
2023-02-22T02:18:12.976Z,0.40
2023-02-22T02:20:44.646Z,0.30
2023-02-22T02:23:27.783Z,0.40
2023-02-22T02:26:04.166Z,0.35
2023-02-22T02:28:43.400Z,0.40
2023-02-22T02:31:21.644Z,0.40
2023-02-22T02:33:51.445Z,0.30
2023-02-22T02:36:20.721Z,0.40
2023-02-22T02:38:51.567Z,0.30
2023-02-22T02:41:27.771Z,0.30
2023-02-22T02:43:58.414Z,0.30
2023-02-22T02:46:29.009Z,0.30
2023-02-22T02:48:59.937Z,0.30
2023-02-22T02:51:30.717Z,0.40
2023-02-22T02:54:00.655Z,0.40
2023-02-22T02:56:28.754Z,0.40
2023-02-22T02:58:56.185Z,0.30
2023-02-22T03:01:34.060Z,0.40
2023-02-22T03:04:13.849Z,0.30
2023-02-22T03:06:51.809Z,0.35
2023-02-22T03:09:26.641Z,0.40
2023-02-22T03:12:02.352Z,0.30
2023-02-22T03:14:35.391Z,0.50
2023-02-22T03:17:05.928Z,0.30
2023-02-22T03:19:37.858Z,0.40
2023-02-22T03:22:09.893Z,0.50
2023-02-22T03:24:38.625Z,0.40
2023-02-22T03:27:09.405Z,0.30
2023-02-22T03:29:39.960Z,0.30
2023-02-22T03:32:10.098Z,0.40
2023-02-22T03:34:43.419Z,0.40
2023-02-22T03:37:14.562Z,0.30
2023-02-22T03:39:44.479Z,0.40
2023-02-22T03:42:14.753Z,0.30
2023-02-22T03:44:43.882Z,0.30
2023-02-22T03:47:16.024Z,0.40
2023-02-22T03:49:47.382Z,0.30
2023-02-22T03:52:15.384Z,0.30
2023-02-22T03:54:42.969Z,0.43
2023-02-22T03:57:13.072Z,0.40
2023-02-22T03:59:43.857Z,0.43
2023-02-22T04:02:11.636Z,0.40
2023-02-22T04:04:39.099Z,0.32
2023-02-22T04:07:08.841Z,0.30
2023-02-22T04:09:37.032Z,0.30
2023-02-22T04:12:05.110Z,0.30
2023-02-22T04:14:42.075Z,0.40
2023-02-22T04:17:10.255Z,0.30
2023-02-22T04:19:37.843Z,0.40
2023-02-22T04:22:05.834Z,0.32
2023-02-22T04:24:36.704Z,0.30
2023-02-22T04:27:04.549Z,0.30
2023-02-22T04:29:35.061Z,0.30
2023-02-22T04:32:03.481Z,0.50
2023-02-22T04:34:31.013Z,0.50
2023-02-22T04:36:58.593Z,0.40
2023-02-22T04:39:26.082Z,0.45
2023-02-22T04:41:56.001Z,0.38
2023-02-22T04:44:23.471Z,0.40
2023-02-22T04:46:51.006Z,0.35
2023-02-22T04:49:18.461Z,0.40
2023-02-22T04:51:47.351Z,0.43
2023-02-22T04:54:17.322Z,0.40
2023-02-22T04:56:47.546Z,0.50
2023-02-22T04:59:16.490Z,0.40
2023-02-22T05:01:46.802Z,0.50
2023-02-22T05:04:14.320Z,0.38
2023-02-22T05:06:42.005Z,0.40
2023-02-22T05:09:09.498Z,0.38
2023-02-22T05:11:36.923Z,0.40
2023-02-22T05:14:29.420Z,0.38
2023-02-22T05:17:28.934Z,0.40
2023-02-22T05:20:23.156Z,0.40
2023-02-22T05:22:51.950Z,0.40
2023-02-22T05:25:44.423Z,0.40
2023-02-22T05:28:17.085Z,0.40
2023-02-22T05:30:44.646Z,0.40
2023-02-22T05:33:13.933Z,0.40
2023-02-22T05:35:41.503Z,0.40
2023-02-22T05:38:08.980Z,0.40
2023-02-22T05:40:36.427Z,0.40
2023-02-22T05:43:03.843Z,0.40
2023-02-22T05:45:31.315Z,0.40
2023-02-22T05:47:58.789Z,0.38
2023-02-22T05:50:27.544Z,0.40
2023-02-22T05:52:55.509Z,0.40
2023-02-22T05:55:23.762Z,0.43
2023-02-22T05:57:51.455Z,0.40
2023-02-22T06:00:20.896Z,0.30
2023-02-22T06:02:48.315Z,0.40
2023-02-22T06:05:16.120Z,0.40
2023-02-22T06:07:44.942Z,0.40
2023-02-22T06:10:13.379Z,0.40
2023-02-22T06:12:41.591Z,0.40
2023-02-22T06:15:09.134Z,0.50
2023-02-22T06:17:36.627Z,0.40
2023-02-22T06:20:04.392Z,0.43
2023-02-22T06:22:31.824Z,0.30
2023-02-22T06:25:00.832Z,0.40
2023-02-22T06:27:31.429Z,0.40
2023-02-22T06:29:58.927Z,0.30
2023-02-22T06:32:26.642Z,0.30
2023-02-22T06:34:54.199Z,0.30
2023-02-22T06:37:21.592Z,0.40
2023-02-22T06:39:49.073Z,0.38
2023-02-22T06:42:17.933Z,0.40
2023-02-22T06:44:45.686Z,0.30
2023-02-22T06:47:13.099Z,0.30
2023-02-22T06:49:40.548Z,0.40
2023-02-22T06:52:08.428Z,0.30
2023-02-22T06:54:36.018Z,0.40
2023-02-22T06:57:03.546Z,0.32
2023-02-22T06:59:32.311Z,0.32
2023-02-22T07:02:00.115Z,0.40
2023-02-22T07:04:28.491Z,0.40
2023-02-22T07:06:56.296Z,0.30
2023-02-22T07:09:25.253Z,0.30
2023-02-22T07:11:52.950Z,0.30
2023-02-22T07:14:20.375Z,0.30
2023-02-22T07:16:49.161Z,0.20
2023-02-22T07:19:16.616Z,0.20
2023-02-22T07:21:44.016Z,0.20
2023-02-22T07:24:11.432Z,0.10
2023-02-22T07:26:40.098Z,0.20
2023-02-22T07:29:07.777Z,0.20
2023-02-22T07:31:39.049Z,0.20
2023-02-22T07:34:07.878Z,0.10
2023-02-22T07:36:35.300Z,0.10
2023-02-22T07:39:03.306Z,0.20
2023-02-22T07:41:30.722Z,0.15
2023-02-22T07:43:58.141Z,0.10
2023-02-22T07:46:25.561Z,0.10
2023-02-22T07:48:53.002Z,0.10
2023-02-22T07:51:21.841Z,0.10
2023-02-22T07:53:49.622Z,0.10
2023-02-22T07:56:18.143Z,0.10
2023-02-22T07:58:45.598Z,0.10
2023-02-22T08:01:13.065Z,0.10
2023-02-22T08:03:40.594Z,0.10
2023-02-22T08:06:08.317Z,0.10
2023-02-22T08:08:37.152Z,0.13
2023-02-22T08:11:05.619Z,0.10
2023-02-22T08:13:33.228Z,0.10
2023-02-22T08:16:00.689Z,0.10
2023-02-22T08:18:28.445Z,0.10
2023-02-22T08:20:56.327Z,0.10
2023-02-22T08:23:26.813Z,0.10
2023-02-22T08:25:55.899Z,0.10
2023-02-22T08:28:25.154Z,0.10
2023-02-22T08:30:52.846Z,0.10
2023-02-22T08:33:20.817Z,0.10
2023-02-22T08:35:49.910Z,0.10
2023-02-22T08:38:18.449Z,0.10
2023-02-22T08:40:45.919Z,0.10
2023-02-22T08:43:14.814Z,0.10
2023-02-22T08:45:42.664Z,0.10
2023-02-22T08:48:10.127Z,0.10
2023-02-22T08:50:38.108Z,0.10
2023-02-22T08:53:06.056Z,0.08
2023-02-22T08:55:34.681Z,0.10
2023-02-22T08:58:03.031Z,0.00
2023-02-22T09:00:33.679Z,0.10
2023-02-22T09:03:03.403Z,0.00
2023-02-22T09:05:31.731Z,0.00
2023-02-22T09:07:59.684Z,0.00
2023-02-22T09:10:28.558Z,0.08
2023-02-22T09:12:56.709Z,0.00
2023-02-22T09:15:24.926Z,0.00
2023-02-22T09:17:54.103Z,0.00
2023-02-22T09:20:22.722Z,0.00
2023-02-22T09:22:50.777Z,0.00
2023-02-22T09:25:20.392Z,0.00
2023-02-22T09:27:48.435Z,0.10
2023-02-22T09:30:23.517Z,0.10
2023-02-22T09:32:52.475Z,0.10
2023-02-22T09:35:26.822Z,0.20
2023-02-22T09:37:55.103Z,0.10
2023-02-22T09:40:25.835Z,0.20
2023-02-22T09:42:57.572Z,0.20
2023-02-22T09:45:28.690Z,0.20
2023-02-22T09:48:01.318Z,0.20
2023-02-22T09:50:35.569Z,0.20
2023-02-22T09:53:05.956Z,0.30
2023-02-22T09:55:36.628Z,0.20
2023-02-22T09:58:05.372Z,0.30
2023-02-22T10:00:34.381Z,0.30
2023-02-22T10:03:08.162Z,0.30
2023-02-22T10:05:39.698Z,0.20
2023-02-22T10:08:12.623Z,0.20
2023-02-22T10:10:40.963Z,0.30
2023-02-22T10:13:14.706Z,0.20
2023-02-22T10:15:47.498Z,0.28
2023-02-22T10:18:35.816Z,0.20
2023-02-22T10:21:08.047Z,0.20
2023-02-22T10:23:37.502Z,0.20
2023-02-22T10:26:09.857Z,0.20
2023-02-22T10:28:40.359Z,0.20
2023-02-22T10:31:08.779Z,0.30
2023-02-22T10:33:38.896Z,0.30
2023-02-22T10:36:16.134Z,0.20
2023-02-22T10:38:48.678Z,0.22
2023-02-22T10:41:21.716Z,0.30
2023-02-22T10:43:49.174Z,0.20
2023-02-22T10:46:18.752Z,0.20
2023-02-22T10:48:51.305Z,0.20
2023-02-22T10:51:20.094Z,0.20
2023-02-22T10:54:06.438Z,0.20
2023-02-22T10:56:33.908Z,0.20
2023-02-22T10:59:04.145Z,0.20
2023-02-22T11:01:36.229Z,0.20
2023-02-22T11:04:06.405Z,0.20
2023-02-22T11:06:35.849Z,0.20
2023-02-22T11:09:10.359Z,0.20
2023-02-22T11:11:38.721Z,0.30
2023-02-22T11:14:06.749Z,0.20
2023-02-22T11:16:36.172Z,0.25
2023-02-22T11:19:04.558Z,0.22
2023-02-22T11:21:32.705Z,0.30
2023-02-22T11:24:05.720Z,0.25
2023-02-22T11:26:38.617Z,0.20
2023-02-22T11:29:11.045Z,0.20
2023-02-22T11:31:42.924Z,0.28
2023-02-22T11:34:25.309Z,0.28
2023-02-22T11:36:52.756Z,0.30
2023-02-22T11:39:25.878Z,0.30
2023-02-22T11:41:53.943Z,0.22
2023-02-22T11:44:25.603Z,0.20
2023-02-22T11:46:55.595Z,0.28
2023-02-22T11:49:24.598Z,0.20
2023-02-22T11:51:59.551Z,0.25
2023-02-22T11:54:38.865Z,0.30
2023-02-22T11:57:15.970Z,0.20
2023-02-22T11:59:48.559Z,0.25
2023-02-22T12:02:25.025Z,0.30
2023-02-22T12:05:02.167Z,0.22
2023-02-22T12:07:38.818Z,0.20
2023-02-22T12:10:15.778Z,0.30
2023-02-22T12:12:50.979Z,0.20
2023-02-22T12:15:24.497Z,0.20
2023-02-22T12:18:00.334Z,0.20
2023-02-22T12:20:32.176Z,0.20
2023-02-22T12:23:03.716Z,0.20
2023-02-22T12:25:34.976Z,0.20
2023-02-22T12:28:23.706Z,0.20
2023-02-22T12:30:53.901Z,0.20
2023-02-22T12:33:24.700Z,0.20
2023-02-22T12:35:55.956Z,0.20
2023-02-22T12:38:25.422Z,0.30
2023-02-22T12:40:58.030Z,0.20
2023-02-22T12:43:28.382Z,0.20
2023-02-22T12:46:02.141Z,0.20
2023-02-22T12:48:36.335Z,0.20
2023-02-22T12:51:18.635Z,0.20
2023-02-22T12:53:52.529Z,0.22
2023-02-22T12:56:23.410Z,0.20
2023-02-22T12:58:55.013Z,0.20
2023-02-22T13:01:24.340Z,0.30
2023-02-22T13:03:51.891Z,0.20
2023-02-22T13:06:28.142Z,0.20
2023-02-22T13:09:03.601Z,0.20
2023-02-22T13:11:34.712Z,0.20
2023-02-22T13:14:08.604Z,0.20
2023-02-22T13:16:41.969Z,0.20
2023-02-22T13:19:22.293Z,0.20
2023-02-22T13:21:52.436Z,0.10
2023-02-22T13:24:22.035Z,0.20
2023-02-22T13:26:52.955Z,0.20
2023-02-22T13:29:21.527Z,0.10
2023-02-22T13:31:59.249Z,0.20
2023-02-22T13:34:41.595Z,0.20
2023-02-22T13:37:17.722Z,0.10
2023-02-22T13:40:00.112Z,0.10
2023-02-22T13:42:53.461Z,0.20
2023-02-22T13:45:35.037Z,0.20
2023-02-22T13:48:14.411Z,0.20
2023-02-22T13:50:56.708Z,0.17
2023-02-22T13:53:25.892Z,0.20
2023-02-22T13:55:56.600Z,0.20
2023-02-22T13:58:24.532Z,0.10
2023-02-22T14:00:55.621Z,0.20
2023-02-22T14:03:44.074Z,0.30
2023-02-22T14:06:31.954Z,0.20
2023-02-22T14:08:59.471Z,0.20
2023-02-22T14:11:47.568Z,0.25
2023-02-22T14:14:19.061Z,0.30
2023-02-22T14:17:08.963Z,0.20
2023-02-22T14:19:36.433Z,0.20
2023-02-22T14:22:05.805Z,0.20
2023-02-22T14:24:42.846Z,0.20
2023-02-22T14:27:10.601Z,0.20
2023-02-22T14:29:38.470Z,0.20
2023-02-22T14:32:10.514Z,0.20
2023-02-22T14:34:42.570Z,0.15
2023-02-22T14:37:12.534Z,0.20
2023-02-22T14:39:43.468Z,0.20
2023-02-22T14:42:14.698Z,0.20
2023-02-22T14:44:44.404Z,0.20
2023-02-22T14:47:20.037Z,0.20
2023-02-22T14:49:48.901Z,0.20
2023-02-22T14:52:19.632Z,0.20
2023-02-22T14:54:57.928Z,0.28
2023-02-22T14:57:29.548Z,0.20
2023-02-22T15:00:11.730Z,0.20
2023-02-22T15:02:41.555Z,0.20
2023-02-22T15:05:13.539Z,0.20
2023-02-22T15:07:41.031Z,0.10
2023-02-22T15:10:17.516Z,0.20
2023-02-22T15:12:51.429Z,0.20
2023-02-22T15:15:21.841Z,0.20
2023-02-22T15:17:53.321Z,0.20
2023-02-22T15:20:21.275Z,0.13
2023-02-22T15:22:49.812Z,0.20
2023-02-22T15:25:17.375Z,0.25
2023-02-22T15:27:47.380Z,0.20
2023-02-22T15:30:20.523Z,0.20
2023-02-22T15:33:02.964Z,0.10
2023-02-22T15:35:33.704Z,0.20
2023-02-22T15:38:03.237Z,0.20
2023-02-22T15:40:33.135Z,0.20
2023-02-22T15:43:02.268Z,0.10
2023-02-22T15:45:32.245Z,0.20
2023-02-22T15:47:59.855Z,0.20
2023-02-22T15:50:29.454Z,0.20
2023-02-22T15:52:59.120Z,0.20
2023-02-22T15:55:28.216Z,0.20
2023-02-22T15:57:56.190Z,0.20
2023-02-22T16:00:25.081Z,0.20
2023-02-22T16:02:52.830Z,0.25
2023-02-22T16:05:20.352Z,0.20
2023-02-22T16:07:49.465Z,0.17
2023-02-22T16:10:25.994Z,0.30
2023-02-22T16:13:04.504Z,0.20
2023-02-22T16:15:32.675Z,0.20
2023-02-22T16:18:15.231Z,0.30
2023-02-22T16:20:42.684Z,0.28
2023-02-22T16:23:24.162Z,0.30
2023-02-22T16:26:06.519Z,0.30
2023-02-22T16:28:36.114Z,0.30
2023-02-22T16:31:04.330Z,0.30
2023-02-22T16:33:33.974Z,0.40
2023-02-22T16:36:05.567Z,0.30
2023-02-22T16:38:38.234Z,0.20
2023-02-22T16:41:06.536Z,0.40
2023-02-22T16:43:37.226Z,0.30
2023-02-22T16:46:07.291Z,0.30
2023-02-22T16:48:38.037Z,0.30
2023-02-22T16:51:10.393Z,0.30
2023-02-22T16:53:37.892Z,0.30
2023-02-22T16:56:06.313Z,0.32
2023-02-22T16:58:34.675Z,0.30
2023-02-22T17:01:03.300Z,0.30
2023-02-22T17:03:32.096Z,0.30
2023-02-22T17:05:59.547Z,0.30
2023-02-22T17:08:27.431Z,0.40
2023-02-22T17:10:56.646Z,0.30
2023-02-22T17:13:26.945Z,0.40
2023-02-22T17:15:55.327Z,0.30
2023-02-22T17:18:23.825Z,0.30
2023-02-22T17:20:53.294Z,0.28
2023-02-22T17:23:20.882Z,0.45
2023-02-22T17:25:53.310Z,0.40
2023-02-22T17:28:21.031Z,0.40
2023-02-22T17:30:48.936Z,0.30
2023-02-22T17:33:17.455Z,0.40
2023-02-22T17:35:46.831Z,0.40
2023-02-22T17:38:18.337Z,0.30
2023-02-22T17:40:47.978Z,0.32
2023-02-22T17:43:16.428Z,0.40
2023-02-22T17:45:43.883Z,0.30
2023-02-22T17:48:11.352Z,0.30
2023-02-22T17:50:39.567Z,0.30
2023-02-22T17:53:07.506Z,0.30
2023-02-22T17:55:37.741Z,0.30
2023-02-22T17:58:05.334Z,0.30
2023-02-22T18:00:35.532Z,0.30
2023-02-22T18:03:04.816Z,0.30
2023-02-22T18:05:33.144Z,0.30
2023-02-22T18:08:00.575Z,0.30
2023-02-22T18:10:28.609Z,0.30
2023-02-22T18:13:02.214Z,0.40
2023-02-22T18:15:30.027Z,0.30
2023-02-22T18:17:57.709Z,0.30
2023-02-22T18:20:31.054Z,0.30
2023-02-22T18:22:58.945Z,0.30
2023-02-22T18:25:26.859Z,0.30
2023-02-22T18:27:55.052Z,0.30
2023-02-22T18:30:24.208Z,0.30
2023-02-22T18:32:52.115Z,0.30
2023-02-22T18:35:19.702Z,0.30
2023-02-22T18:37:47.164Z,0.40
2023-02-22T18:40:14.600Z,0.40
2023-02-22T18:42:42.026Z,0.30
2023-02-22T18:45:09.711Z,0.30
2023-02-22T18:47:42.676Z,0.30
2023-02-22T18:50:12.819Z,0.30
2023-02-22T18:52:46.751Z,0.32
2023-02-22T18:55:14.541Z,0.30
2023-02-22T18:57:42.297Z,0.32
2023-02-22T19:00:10.489Z,0.32
2023-02-22T19:02:43.396Z,0.40
2023-02-22T19:05:17.241Z,0.30
2023-02-22T19:07:44.680Z,0.35
2023-02-22T19:10:14.686Z,0.30
2023-02-22T19:12:42.166Z,0.38
2023-02-22T19:15:11.749Z,0.30
2023-02-22T19:17:40.633Z,0.30
2023-02-22T19:20:10.643Z,0.40
2023-02-22T19:22:39.464Z,0.30
2023-02-22T19:25:07.371Z,0.30
2023-02-22T19:27:35.573Z,0.50
2023-02-22T19:30:04.520Z,0.30
2023-02-22T19:32:33.377Z,0.30
2023-02-22T19:35:02.923Z,0.30
2023-02-22T19:37:33.867Z,0.25
2023-02-22T19:40:07.046Z,0.35
2023-02-22T19:42:34.476Z,0.40
2023-02-22T19:45:02.186Z,0.40
2023-02-22T19:47:29.633Z,0.30
2023-02-22T19:49:59.628Z,0.40
2023-02-22T19:55:22.098Z,0.30
2023-02-22T19:57:50.148Z,0.30
2023-02-22T20:00:24.233Z,0.43
2023-02-22T20:02:57.791Z,0.30
2023-02-22T20:05:25.251Z,0.30
2023-02-22T20:07:53.132Z,0.35
2023-02-22T20:10:22.019Z,0.30
2023-02-22T20:12:49.447Z,0.30
2023-02-22T20:15:16.931Z,0.30
2023-02-22T20:17:50.183Z,0.38
2023-02-22T20:20:17.849Z,0.30
2023-02-22T20:22:45.649Z,0.30
2023-02-22T20:25:13.548Z,0.30
2023-02-22T20:27:42.617Z,0.30
2023-02-22T20:30:10.916Z,0.40
2023-02-22T20:32:38.703Z,0.30
2023-02-22T20:35:06.884Z,0.35
2023-02-22T20:37:35.526Z,0.30
2023-02-22T20:40:05.196Z,0.25
2023-02-22T20:42:32.751Z,0.30
2023-02-22T20:45:04.633Z,0.40
2023-02-22T20:47:32.322Z,0.40
2023-02-22T20:49:59.822Z,0.35
2023-02-22T20:52:27.281Z,0.40
2023-02-22T20:54:56.296Z,0.40
2023-02-22T20:57:23.735Z,0.50
2023-02-22T20:59:51.236Z,0.30
2023-02-22T21:02:20.030Z,0.40
2023-02-22T21:04:47.680Z,0.40
2023-02-22T21:07:15.165Z,0.30
2023-02-22T21:09:43.022Z,0.30
2023-02-22T21:12:13.469Z,0.30
2023-02-22T21:14:41.443Z,0.30
2023-02-22T21:17:09.499Z,0.30
2023-02-22T21:19:38.583Z,0.40
2023-02-22T21:22:08.225Z,0.30
2023-02-22T21:24:36.528Z,0.40
2023-02-22T21:27:06.651Z,0.40
2023-02-22T21:29:35.549Z,0.40
2023-02-22T21:32:03.828Z,0.30
2023-02-22T21:34:31.689Z,0.30
2023-02-22T21:37:00.552Z,0.30
2023-02-22T21:39:29.010Z,0.30
2023-02-22T21:42:00.010Z,0.35
2023-02-22T21:44:28.958Z,0.50
2023-02-22T21:46:56.555Z,0.40
2023-02-22T21:49:24.922Z,0.40
2023-02-22T21:51:52.738Z,0.38
2023-02-22T21:54:21.538Z,0.32
2023-02-22T21:56:49.076Z,0.40
2023-02-22T21:59:18.810Z,0.30
2023-02-22T22:01:47.438Z,0.30
2023-02-22T22:04:18.689Z,0.40
2023-02-22T22:06:47.252Z,0.50
2023-02-22T22:09:19.111Z,0.35
2023-02-22T22:11:49.719Z,0.38
2023-02-22T22:14:18.534Z,0.30
2023-02-22T22:16:47.163Z,0.30
2023-02-22T22:19:14.968Z,0.40
2023-02-22T22:21:42.496Z,0.40
2023-02-22T22:24:10.760Z,0.40
2023-02-22T22:26:38.516Z,0.30
2023-02-22T22:29:09.962Z,0.40
2023-02-22T22:31:37.752Z,0.30
2023-02-22T22:34:05.940Z,0.40
2023-02-22T22:36:34.387Z,0.30
2023-02-22T22:39:03.364Z,0.30
2023-02-22T22:41:30.910Z,0.32
2023-02-22T22:43:58.797Z,0.30
2023-02-22T22:46:27.868Z,0.30
2023-02-22T22:48:55.533Z,0.40
2023-02-22T22:51:23.091Z,0.30
2023-02-22T22:53:51.445Z,0.30
2023-02-22T22:56:19.796Z,0.40
2023-02-22T22:58:48.818Z,0.32
2023-02-22T23:01:19.664Z,0.35
2023-02-22T23:03:55.038Z,0.30
2023-02-22T23:06:25.612Z,0.43
2023-02-22T23:08:55.354Z,0.30
2023-02-22T23:11:22.907Z,0.30
2023-02-22T23:13:50.476Z,0.40
2023-02-22T23:16:19.897Z,0.35
2023-02-22T23:18:51.296Z,0.40
2023-02-22T23:21:19.663Z,0.40
2023-02-22T23:23:51.260Z,0.40
2023-02-22T23:26:18.843Z,0.30
2023-02-22T23:28:47.733Z,0.30
2023-02-22T23:31:16.078Z,0.30
2023-02-22T23:33:44.375Z,0.28
2023-02-22T23:36:13.320Z,0.30
2023-02-22T23:38:41.927Z,0.30
2023-02-22T23:41:10.638Z,0.30
2023-02-22T23:43:41.116Z,0.32
2023-02-22T23:46:34.362Z,0.50
2023-02-22T23:49:02.744Z,0.35
2023-02-22T23:51:39.065Z,0.30
2023-02-22T23:54:07.390Z,0.40
2023-02-22T23:56:35.314Z,0.30
2023-02-22T23:59:09.475Z,0.30
